createdAt,value
2022-09-15T00:01:52.934Z,99872.59
2022-09-15T00:04:23.459Z,99864.31
2022-09-15T00:06:51.510Z,99871.75
2022-09-15T00:09:20.888Z,99870.03
2022-09-15T00:11:50.344Z,99878.56
2022-09-15T00:14:19.709Z,99860.25
2022-09-15T00:16:48.945Z,99863.94
2022-09-15T00:19:18.108Z,99864.53
2022-09-15T00:21:48.899Z,99868.00
2022-09-15T00:24:16.970Z,99867.81
2022-09-15T00:26:46.355Z,99866.66
2022-09-15T00:29:15.650Z,99871.28
2022-09-15T00:31:44.929Z,99877.81
2022-09-15T00:34:14.799Z,99881.03
2022-09-15T00:36:43.958Z,99879.84
2022-09-15T00:39:14.869Z,99890.91
2022-09-15T00:41:43.086Z,99886.94
2022-09-15T00:44:47.628Z,99887.31
2022-09-15T00:47:20.090Z,99886.03
2022-09-15T00:49:59.076Z,99890.22
2022-09-15T00:52:34.771Z,99901.03
2022-09-15T00:55:10.232Z,99912.84
2022-09-15T00:57:43.942Z,99914.59
2022-09-15T01:00:18.242Z,99925.06
2022-09-15T01:02:48.638Z,99923.06
2022-09-15T01:05:22.177Z,99911.81
2022-09-15T01:07:54.853Z,99912.16
2022-09-15T01:10:28.939Z,99910.22
2022-09-15T01:13:02.667Z,99911.28
2022-09-15T01:20:27.455Z,99899.91
2022-09-15T01:23:14.332Z,99890.56
2022-09-15T01:26:04.754Z,99885.31
2022-09-15T01:28:50.262Z,99878.25
2022-09-15T01:31:24.980Z,99886.19
2022-09-15T01:33:58.855Z,99880.03
2022-09-15T01:36:34.920Z,99880.16
2022-09-15T01:39:11.450Z,99871.41
2022-09-15T01:41:48.568Z,99865.34
2022-09-15T01:44:20.789Z,99874.22
2022-09-15T01:46:55.926Z,99873.34
2022-09-15T01:49:28.398Z,99880.81
2022-09-15T01:51:59.256Z,99882.84
2022-09-15T01:54:33.805Z,99880.56
2022-09-15T01:57:05.121Z,99880.47
2022-09-15T01:59:35.963Z,99878.03
2022-09-15T02:02:11.036Z,99885.72
2022-09-15T02:04:46.314Z,99885.97
2022-09-15T02:07:27.062Z,99886.41
2022-09-15T02:09:58.331Z,99881.75
2022-09-15T02:12:34.818Z,99882.06
2022-09-15T02:15:08.991Z,99894.28
2022-09-15T02:17:42.601Z,99892.53
2022-09-15T02:20:16.535Z,99898.13
2022-09-15T02:22:50.390Z,99898.13
2022-09-15T02:25:25.827Z,99909.97
2022-09-15T02:28:00.933Z,99911.06
2022-09-15T02:30:33.311Z,99919.63
2022-09-15T02:33:08.331Z,99919.34
2022-09-15T02:35:40.100Z,99925.16
2022-09-15T02:38:12.331Z,99927.16
2022-09-15T02:40:44.411Z,99929.16
2022-09-15T02:43:16.583Z,99936.84
2022-09-15T02:45:46.792Z,99932.63
2022-09-15T02:48:17.643Z,99950.13
2022-09-15T02:50:46.957Z,99954.41
2022-09-15T02:53:16.533Z,99948.97
2022-09-15T02:55:45.839Z,99946.69
2022-09-15T02:58:15.138Z,99954.97
2022-09-15T03:00:44.767Z,99956.19
2022-09-15T03:03:17.338Z,99957.75
2022-09-15T03:05:47.840Z,99946.53
2022-09-15T03:08:18.703Z,99958.25
2022-09-15T03:10:50.149Z,99959.13
2022-09-15T03:13:21.174Z,99958.81
2022-09-15T03:15:52.076Z,99952.06
2022-09-15T03:18:24.367Z,99953.44
2022-09-15T03:20:57.651Z,99952.19
2022-09-15T03:23:28.732Z,99944.66
2022-09-15T03:26:00.263Z,99951.53
2022-09-15T03:28:31.282Z,99949.03
2022-09-15T03:31:02.368Z,99941.84
2022-09-15T03:33:34.824Z,99932.38
2022-09-15T03:36:07.502Z,99936.97
2022-09-15T03:38:38.486Z,99936.59
2022-09-15T03:41:11.938Z,99941.44
2022-09-15T03:43:42.813Z,99925.22
2022-09-15T03:46:15.179Z,99918.44
2022-09-15T03:48:47.891Z,99918.31
2022-09-15T03:51:18.778Z,99912.56
2022-09-15T03:53:49.619Z,99915.22
2022-09-15T03:56:24.341Z,99902.84
2022-09-15T03:58:55.620Z,99901.72
2022-09-15T04:01:26.856Z,99877.13
2022-09-15T04:03:59.475Z,99880.06
2022-09-15T04:06:31.116Z,99877.34
2022-09-15T04:09:02.076Z,99874.03
2022-09-15T04:11:33.493Z,99852.84
2022-09-15T04:14:03.011Z,99857.91
2022-09-15T04:16:32.903Z,99859.81
2022-09-15T04:19:04.075Z,99854.97
2022-09-15T04:21:32.562Z,99856.63
2022-09-15T04:24:04.723Z,99856.44
2022-09-15T04:26:36.812Z,99850.38
2022-09-15T04:29:13.323Z,99838.53
2022-09-15T04:31:44.575Z,99832.34
2022-09-15T04:34:15.623Z,99839.13
2022-09-15T04:36:44.074Z,99839.69
2022-09-15T04:39:13.974Z,99832.91
2022-09-15T04:41:44.711Z,99827.84
2022-09-15T04:44:14.434Z,99820.91
2022-09-15T04:46:44.497Z,99822.78
2022-09-15T04:49:16.236Z,99825.88
2022-09-15T04:51:47.016Z,99823.34
2022-09-15T04:54:16.699Z,99815.75
2022-09-15T04:56:47.215Z,99820.81
2022-09-15T04:59:18.680Z,99822.91
2022-09-15T05:01:49.220Z,99824.91
2022-09-15T05:04:21.298Z,99825.81
2022-09-15T05:06:49.670Z,99815.91
2022-09-15T05:09:19.825Z,99821.56
2022-09-15T05:11:49.679Z,99815.06
2022-09-15T05:14:19.499Z,99816.69
2022-09-15T05:16:49.522Z,99822.00
2022-09-15T05:19:19.647Z,99820.75
2022-09-15T05:21:50.332Z,99833.34
2022-09-15T05:24:18.872Z,99831.88
2022-09-15T05:26:48.484Z,99824.88
2022-09-15T05:29:18.142Z,99831.94
2022-09-15T05:31:48.475Z,99824.50
2022-09-15T05:34:18.371Z,99821.13
2022-09-15T05:36:47.936Z,99825.09
2022-09-15T05:39:19.432Z,99816.38
2022-09-15T05:41:47.705Z,99816.63
2022-09-15T05:44:17.542Z,99816.03
2022-09-15T05:46:47.101Z,99812.28
2022-09-15T05:49:16.931Z,99808.34
2022-09-15T05:51:46.928Z,99808.94
2022-09-15T05:54:16.579Z,99814.25
2022-09-15T05:56:47.746Z,99804.09
2022-09-15T05:59:16.113Z,99806.03
2022-09-15T06:01:45.815Z,99817.84
2022-09-15T06:04:15.483Z,99812.47
2022-09-15T06:06:46.320Z,99808.41
2022-09-15T06:09:16.250Z,99814.41
2022-09-15T06:11:47.409Z,99819.28
2022-09-15T06:14:18.278Z,99819.03
2022-09-15T06:16:49.132Z,99819.78
2022-09-15T06:19:20.066Z,99817.03
2022-09-15T06:21:51.066Z,99817.88
2022-09-15T06:24:22.045Z,99817.69
2022-09-15T06:26:54.385Z,99812.69
2022-09-15T06:29:25.286Z,99819.78
2022-09-15T06:31:57.085Z,99818.09
2022-09-15T06:34:28.078Z,99815.41
2022-09-15T06:36:59.249Z,99802.50
2022-09-15T06:39:30.164Z,99809.75
2022-09-15T06:42:04.236Z,99819.38
2022-09-15T06:44:38.584Z,99814.28
2022-09-15T06:47:10.481Z,99822.03
2022-09-15T06:49:41.333Z,99812.59
2022-09-15T06:52:12.259Z,99824.59
2022-09-15T06:54:43.124Z,99817.38
2022-09-15T06:57:15.580Z,99826.09
2022-09-15T06:59:46.466Z,99828.13
2022-09-15T07:02:17.398Z,99827.47
2022-09-15T07:04:46.656Z,99827.56
2022-09-15T07:07:16.035Z,99852.22
2022-09-15T07:09:48.934Z,99849.00
2022-09-15T07:12:21.442Z,99831.88
2022-09-15T07:14:51.695Z,99858.09
2022-09-15T07:17:22.676Z,99842.91
2022-09-15T07:19:53.559Z,99843.38
2022-09-15T07:22:25.602Z,99839.66
2022-09-15T07:24:56.516Z,99837.13
2022-09-15T07:27:31.606Z,99858.47
2022-09-15T07:30:03.769Z,99856.44
2022-09-15T07:32:32.653Z,99845.09
2022-09-15T07:35:03.532Z,99849.63
2022-09-15T07:37:35.980Z,99853.09
2022-09-15T07:40:08.129Z,99861.38
2022-09-15T07:42:43.138Z,99867.47
2022-09-15T07:45:14.081Z,99866.19
2022-09-15T07:47:44.485Z,99843.94
2022-09-15T07:50:15.512Z,99859.16
2022-09-15T07:52:46.402Z,99866.38
2022-09-15T07:55:18.349Z,99864.03
2022-09-15T07:57:57.643Z,99868.47
2022-09-15T08:00:27.953Z,99853.94
2022-09-15T08:02:56.141Z,99854.41
2022-09-15T08:05:28.229Z,99875.28
2022-09-15T08:07:59.198Z,99866.59
2022-09-15T08:10:30.143Z,99875.47
2022-09-15T08:13:02.669Z,99865.66
2022-09-15T08:15:36.572Z,99881.09
2022-09-15T08:18:07.613Z,99867.81
2022-09-15T08:20:39.356Z,99895.88
2022-09-15T08:23:11.044Z,99883.34
2022-09-15T08:25:41.940Z,99879.69
2022-09-15T08:28:14.299Z,99885.78
2022-09-15T08:30:45.340Z,99902.34
2022-09-15T08:33:16.334Z,99910.50
2022-09-15T08:35:47.329Z,99915.91
2022-09-15T08:38:18.192Z,99912.06
2022-09-15T08:40:49.153Z,99899.34
2022-09-15T08:43:25.072Z,99895.44
2022-09-15T08:45:58.637Z,99919.44
2022-09-15T08:48:33.027Z,99900.50
2022-09-15T08:51:09.363Z,99904.94
2022-09-15T08:53:45.575Z,99905.72
2022-09-15T08:56:18.272Z,99899.53
2022-09-15T08:58:48.260Z,99917.06
2022-09-15T09:01:24.110Z,99913.41
2022-09-15T09:04:10.287Z,99930.66
2022-09-15T09:06:47.232Z,99938.53
2022-09-15T09:09:23.384Z,99942.94
2022-09-15T09:12:03.775Z,99942.09
2022-09-15T09:14:42.542Z,99942.16
2022-09-15T09:17:29.840Z,99941.03
2022-09-15T09:20:19.123Z,99944.66
2022-09-15T09:22:51.659Z,99942.75
2022-09-15T09:25:27.648Z,99931.78
2022-09-15T09:27:59.665Z,99929.44
2022-09-15T09:30:34.300Z,99938.44
2022-09-15T09:33:16.792Z,99934.19
2022-09-15T09:35:51.507Z,99957.31
2022-09-15T09:38:26.170Z,99943.19
2022-09-15T09:41:01.429Z,99944.47
2022-09-15T09:43:35.685Z,99937.75
2022-09-15T09:46:14.996Z,99939.06
2022-09-15T09:48:50.054Z,99953.22
2022-09-15T09:51:37.369Z,99937.81
2022-09-15T09:54:16.398Z,99948.22
2022-09-15T09:56:48.932Z,99954.63
2022-09-15T09:59:40.491Z,99937.91
2022-09-15T10:02:18.846Z,99940.75
2022-09-15T10:04:51.068Z,99953.88
2022-09-15T10:07:24.108Z,99953.69
2022-09-15T10:09:56.814Z,99955.72
2022-09-15T10:12:31.591Z,99951.16
2022-09-15T10:15:04.347Z,99964.31
2022-09-15T10:17:42.984Z,99946.22
2022-09-15T10:20:33.342Z,99954.59
2022-09-15T10:23:07.141Z,99966.34
2022-09-15T10:25:58.055Z,99957.06
2022-09-15T10:28:29.860Z,99954.19
2022-09-15T10:31:06.357Z,99945.19
2022-09-15T10:33:38.914Z,99945.19
2022-09-15T10:36:11.992Z,99941.03
2022-09-15T10:38:45.464Z,99952.78
2022-09-15T10:41:24.964Z,99943.72
2022-09-15T10:44:15.137Z,99959.59
2022-09-15T10:46:51.929Z,99954.56
2022-09-15T10:49:37.469Z,99937.09
2022-09-15T10:52:14.038Z,99951.09
2022-09-15T10:54:59.662Z,99950.28
2022-09-15T10:57:45.790Z,99940.03
2022-09-15T11:00:20.907Z,99943.25
2022-09-15T11:03:13.060Z,99955.84
2022-09-15T11:05:52.984Z,99967.88
2022-09-15T11:08:40.773Z,99999.28
2022-09-15T11:11:19.700Z,99967.56
2022-09-15T11:14:04.631Z,99984.13
2022-09-15T11:16:46.183Z,99978.28
2022-09-15T11:19:37.255Z,99991.00
2022-09-15T11:22:13.322Z,99973.06
2022-09-15T11:24:47.951Z,99978.28
2022-09-15T11:27:22.332Z,99984.25
2022-09-15T11:30:06.191Z,99975.38
2022-09-15T11:32:40.421Z,99965.25
2022-09-15T11:35:29.186Z,99972.47
2022-09-15T11:38:11.054Z,99974.28
2022-09-15T11:40:48.503Z,99970.63
2022-09-15T11:43:22.856Z,99971.59
2022-09-15T11:45:56.793Z,99977.69
2022-09-15T11:48:32.031Z,99978.41
2022-09-15T11:51:04.369Z,99967.97
2022-09-15T11:53:40.924Z,99968.66
2022-09-15T11:56:17.032Z,99966.84
2022-09-15T11:59:03.697Z,99965.94
2022-09-15T12:01:39.887Z,99962.59
2022-09-15T12:04:14.531Z,99972.13
2022-09-15T12:06:46.287Z,99974.34
2022-09-15T12:09:19.620Z,99973.91
2022-09-15T12:11:52.887Z,99976.88
2022-09-15T12:14:29.371Z,99970.88
2022-09-15T12:17:00.474Z,99980.03
2022-09-15T12:19:53.719Z,99958.78
2022-09-15T12:22:28.998Z,99964.47
2022-09-15T12:25:04.470Z,99967.19
2022-09-15T12:27:35.348Z,99981.72
2022-09-15T12:30:07.410Z,99975.00
2022-09-15T12:32:40.251Z,99977.84
2022-09-15T12:35:33.186Z,99979.63
2022-09-15T12:38:04.780Z,99968.97
2022-09-15T12:40:37.237Z,99984.47
2022-09-15T12:43:19.081Z,99974.44
2022-09-15T12:45:56.020Z,99961.16
2022-09-15T12:48:28.178Z,99983.31
2022-09-15T12:51:00.982Z,99975.41
2022-09-15T12:53:32.058Z,99974.34
2022-09-15T12:56:07.048Z,99965.59
2022-09-15T12:58:39.176Z,99960.47
2022-09-15T13:01:37.761Z,99966.13
2022-09-15T13:04:26.903Z,99976.09
2022-09-15T13:07:34.972Z,99985.94
2022-09-15T13:10:37.114Z,99992.22
2022-09-15T13:13:33.397Z,99980.91
2022-09-15T13:16:07.722Z,99975.72
2022-09-15T13:18:38.142Z,99966.19
2022-09-15T13:21:08.966Z,99959.53
2022-09-15T13:23:42.825Z,99962.28
2022-09-15T13:26:17.747Z,99960.28
2022-09-15T13:28:52.756Z,99964.47
2022-09-15T13:31:35.457Z,99975.72
2022-09-15T13:38:21.233Z,99968.84
2022-09-15T13:41:42.877Z,99974.47
2022-09-15T13:44:43.020Z,99974.63
2022-09-15T13:47:20.073Z,99965.19
2022-09-15T13:49:54.999Z,99975.00
2022-09-15T13:52:43.829Z,99960.59
2022-09-15T13:55:21.668Z,99958.56
2022-09-15T14:00:55.349Z,99963.81
2022-09-15T14:03:29.685Z,99937.31
2022-09-15T14:06:00.769Z,99937.91
2022-09-15T14:08:33.842Z,99938.28
2022-09-15T14:11:08.853Z,99938.22
2022-09-15T14:13:43.737Z,99940.44
2022-09-15T14:16:25.450Z,99940.59
2022-09-15T14:18:58.523Z,99939.94
2022-09-15T14:21:31.234Z,99950.91
2022-09-15T14:24:05.558Z,99942.91
2022-09-15T14:26:37.013Z,99947.38
2022-09-15T14:29:08.343Z,99937.03
2022-09-15T14:31:41.528Z,99939.69
2022-09-15T14:34:18.085Z,99943.03
2022-09-15T14:37:00.347Z,99920.63
2022-09-15T14:39:31.694Z,99941.25
2022-09-15T14:42:10.847Z,99943.31
2022-09-15T14:47:34.441Z,99940.06
2022-09-15T14:50:09.701Z,99946.03
2022-09-15T14:52:43.143Z,99937.31
2022-09-15T14:55:16.827Z,99937.09
2022-09-15T14:57:52.634Z,99940.47
2022-09-15T15:00:25.393Z,99941.94
2022-09-15T15:03:04.209Z,99951.88
2022-09-15T15:05:40.538Z,99945.53
2022-09-15T15:08:16.222Z,99952.38
2022-09-15T15:10:47.235Z,99938.97
2022-09-15T15:13:18.953Z,99937.75
2022-09-15T15:15:50.326Z,99934.41
2022-09-15T15:18:38.900Z,99949.88
2022-09-15T15:21:36.732Z,99947.50
2022-09-15T15:24:25.439Z,99954.81
2022-09-15T15:26:56.330Z,99957.31
2022-09-15T15:29:40.757Z,99942.34
2022-09-15T15:32:13.677Z,99958.34
2022-09-15T15:34:53.514Z,99951.22
2022-09-15T15:37:27.631Z,99947.59
2022-09-15T15:39:59.903Z,99941.47
2022-09-15T15:42:30.980Z,99941.56
2022-09-15T15:45:05.774Z,99951.69
2022-09-15T15:47:37.584Z,99946.22
2022-09-15T15:50:15.415Z,99939.97
2022-09-15T15:52:46.475Z,99956.44
2022-09-15T15:55:18.775Z,99957.09
2022-09-15T15:57:51.278Z,99947.75
2022-09-15T16:00:23.718Z,99948.44
2022-09-15T16:02:54.862Z,99960.56
2022-09-15T16:05:29.106Z,99959.81
2022-09-15T16:08:03.995Z,99951.69
2022-09-15T16:10:40.445Z,99947.63
2022-09-15T16:13:15.129Z,99952.78
2022-09-15T16:15:46.438Z,99952.06
2022-09-15T16:18:17.570Z,99962.56
2022-09-15T16:20:49.931Z,99964.75
2022-09-15T16:23:22.632Z,99959.81
2022-09-15T16:25:55.192Z,99955.13
2022-09-15T16:28:26.279Z,99952.56
2022-09-15T16:30:57.685Z,99960.25
2022-09-15T16:33:28.584Z,99961.50
2022-09-15T16:36:06.775Z,99946.22
2022-09-15T16:38:37.733Z,99956.50
2022-09-15T16:41:14.188Z,99961.22
2022-09-15T16:43:46.102Z,99969.44
2022-09-15T16:46:17.593Z,99936.09
2022-09-15T16:48:48.621Z,99951.50
2022-09-15T16:51:28.882Z,99946.69
2022-09-15T16:54:01.790Z,99957.78
2022-09-15T16:56:32.764Z,99946.03
2022-09-15T16:59:03.722Z,99950.97
2022-09-15T17:01:34.735Z,99946.03
2022-09-15T17:04:10.671Z,99943.78
2022-09-15T17:06:43.041Z,99935.31
2022-09-15T17:09:13.975Z,99952.25
2022-09-15T17:11:44.921Z,99950.41
2022-09-15T17:14:17.789Z,99934.00
2022-09-15T17:16:52.685Z,99939.34
2022-09-15T17:19:23.643Z,99934.34
2022-09-15T17:21:55.974Z,99930.41
2022-09-15T17:24:26.816Z,99929.59
2022-09-15T17:26:57.686Z,99938.72
2022-09-15T17:29:28.620Z,99927.00
2022-09-15T17:31:59.520Z,99937.72
2022-09-15T17:34:27.586Z,99939.69
2022-09-15T17:36:59.069Z,99937.06
2022-09-15T17:39:30.591Z,99938.06
2022-09-15T17:44:36.981Z,99938.09
2022-09-15T17:47:08.638Z,99935.53
2022-09-15T17:49:39.549Z,99943.38
2022-09-15T17:52:12.118Z,99947.78
2022-09-15T17:54:43.016Z,99943.72
2022-09-15T17:57:15.077Z,99937.84
2022-09-15T17:59:43.333Z,99945.00
2022-09-15T18:02:18.709Z,99944.16
2022-09-15T18:04:49.220Z,99945.50
2022-09-15T18:07:19.875Z,99960.19
2022-09-15T18:09:48.246Z,99967.13
2022-09-15T18:12:17.991Z,99949.63
2022-09-15T18:14:46.701Z,99953.91
2022-09-15T18:17:17.032Z,99964.31
2022-09-15T18:19:45.169Z,99962.53
2022-09-15T18:22:15.207Z,99960.31
2022-09-15T18:24:46.036Z,99960.41
2022-09-15T18:27:16.563Z,99967.50
2022-09-15T18:29:45.630Z,99964.47
2022-09-15T18:32:14.768Z,99977.19
2022-09-15T18:34:44.211Z,99970.19
2022-09-15T18:37:13.719Z,99971.03
2022-09-15T18:39:43.343Z,99987.66
2022-09-15T18:42:13.183Z,99980.72
2022-09-15T18:44:41.261Z,99983.75
2022-09-15T18:47:10.629Z,99981.72
2022-09-15T18:49:40.398Z,99986.63
2022-09-15T18:52:09.520Z,99980.09
2022-09-15T18:54:38.993Z,99980.56
2022-09-15T18:57:09.905Z,99981.31
2022-09-15T18:59:40.484Z,99985.31
2022-09-15T19:02:11.680Z,99982.81
2022-09-15T19:04:43.040Z,99984.28
2022-09-15T19:07:13.998Z,99979.13
2022-09-15T19:09:44.878Z,99972.03
2022-09-15T19:12:15.839Z,99979.63
2022-09-15T19:14:48.365Z,99980.50
2022-09-15T19:17:19.304Z,99971.19
2022-09-15T19:19:50.203Z,99973.88
2022-09-15T19:22:21.150Z,99975.50
2022-09-15T19:24:52.133Z,99974.78
2022-09-15T19:27:23.593Z,99967.66
2022-09-15T19:29:55.901Z,99971.09
2022-09-15T19:32:26.928Z,99958.56
2022-09-15T19:34:57.889Z,99962.50
2022-09-15T19:37:28.907Z,99973.56
2022-09-15T19:39:59.889Z,99968.72
2022-09-15T19:42:31.035Z,99956.59
2022-09-15T19:45:03.402Z,99967.34
2022-09-15T19:47:32.334Z,99964.88
2022-09-15T19:50:03.354Z,99968.50
2022-09-15T19:52:34.431Z,99959.75
2022-09-15T19:55:06.757Z,99961.09
2022-09-15T19:57:39.693Z,99959.09
2022-09-15T20:00:12.811Z,99961.09
2022-09-15T20:02:42.091Z,99972.75
2022-09-15T20:05:13.088Z,99963.22
2022-09-15T20:07:44.787Z,99963.38
2022-09-15T20:10:16.164Z,99966.75
2022-09-15T20:12:47.137Z,99972.88
2022-09-15T20:15:19.394Z,99963.75
2022-09-15T20:17:47.658Z,99961.44
2022-09-15T20:20:18.627Z,99967.28
2022-09-15T20:22:49.577Z,99966.38
2022-09-15T20:25:20.770Z,99976.75
2022-09-15T20:27:52.490Z,99959.75
2022-09-15T20:30:24.808Z,99962.13
2022-09-15T20:32:55.741Z,99959.91
2022-09-15T20:35:26.646Z,99958.88
2022-09-15T20:37:57.563Z,99958.44
2022-09-15T20:40:28.531Z,99960.53
2022-09-15T20:42:59.512Z,99944.09
2022-09-15T20:45:36.468Z,99957.75
2022-09-15T20:48:08.029Z,99967.84
2022-09-15T20:50:38.929Z,99956.16
2022-09-15T20:53:09.911Z,99970.22
2022-09-15T20:55:40.840Z,99967.28
2022-09-15T20:58:11.704Z,99960.88
2022-09-15T21:00:43.946Z,99968.63
2022-09-15T21:03:15.914Z,99966.94
2022-09-15T21:05:47.003Z,99970.41
2022-09-15T21:08:17.868Z,99967.38
2022-09-15T21:10:49.359Z,99977.19
2022-09-15T21:13:20.226Z,99979.22
2022-09-15T21:15:58.040Z,99970.53
2022-09-15T21:18:32.547Z,99973.44
2022-09-15T21:21:04.954Z,99968.50
2022-09-15T21:23:40.062Z,99973.72
2022-09-15T21:26:12.434Z,99973.16
2022-09-15T21:28:43.564Z,99963.78
2022-09-15T21:31:17.041Z,99976.69
2022-09-15T21:33:49.166Z,99978.31
2022-09-15T21:36:22.185Z,99968.84
2022-09-15T21:38:54.545Z,99971.53
2022-09-15T21:41:27.001Z,99969.84
2022-09-15T21:43:59.087Z,99974.81
2022-09-15T21:46:32.411Z,99968.28
2022-09-15T21:49:03.446Z,99978.41
2022-09-15T21:51:34.380Z,99972.25
2022-09-15T21:54:05.492Z,99975.81
2022-09-15T21:56:36.530Z,99979.72
2022-09-15T21:59:08.149Z,99974.72
2022-09-15T22:01:40.820Z,99981.78
2022-09-15T22:04:11.863Z,99976.38
2022-09-15T22:06:43.164Z,99983.66
2022-09-15T22:09:15.679Z,99977.88
2022-09-15T22:11:46.589Z,99980.09
2022-09-15T22:14:17.723Z,99986.84
2022-09-15T22:16:50.120Z,99982.97
2022-09-15T22:19:21.498Z,99981.41
2022-09-15T22:21:51.331Z,99986.63
2022-09-15T22:24:20.818Z,99998.53
2022-09-15T22:26:50.086Z,99987.38
2022-09-15T22:29:19.278Z,99985.56
2022-09-15T22:31:50.011Z,99980.91
2022-09-15T22:34:17.905Z,99999.19
2022-09-15T22:36:47.382Z,99977.22
2022-09-15T22:39:16.789Z,99979.50
2022-09-15T22:41:46.047Z,99984.09
2022-09-15T22:44:20.972Z,99982.97
2022-09-15T22:46:51.417Z,99987.53
2022-09-15T22:49:19.883Z,99983.28
2022-09-15T22:51:49.464Z,99976.53
2022-09-15T22:54:18.739Z,99975.88
2022-09-15T22:56:48.034Z,99982.06
2022-09-15T22:59:17.273Z,99981.75
2022-09-15T23:01:47.152Z,99983.34
2022-09-15T23:04:18.093Z,99980.09
2022-09-15T23:06:46.209Z,99975.88
2022-09-15T23:09:16.114Z,99989.03
2022-09-15T23:11:45.235Z,99976.22
2022-09-15T23:14:16.106Z,99979.00
2022-09-15T23:16:46.135Z,99977.22
2022-09-15T23:19:15.492Z,99976.09
2022-09-15T23:21:46.171Z,99979.56
2022-09-15T23:24:15.005Z,99985.56
2022-09-15T23:26:43.829Z,99976.91
2022-09-15T23:29:13.437Z,99981.47
2022-09-15T23:31:42.879Z,99969.28
2022-09-15T23:34:12.348Z,99984.31
2022-09-15T23:36:41.485Z,99984.56
2022-09-15T23:39:12.188Z,99976.13
2022-09-15T23:41:41.332Z,99978.38
2022-09-15T23:44:11.162Z,99999.81
2022-09-15T23:46:40.497Z,99980.09
2022-09-15T23:49:10.007Z,99966.06
2022-09-15T23:51:39.307Z,99973.91
2022-09-15T23:54:08.695Z,99963.44
2022-09-15T23:56:39.591Z,99970.78
2022-09-15T23:59:08.121Z,99964.19
